x

Buoy E01 - Central Maine Shelf (44032) Wave Buoy

7:04am - Mon 29th Dec 2014 All times are EST. -5 hours from GMT.

  • Sig Wave height 1.3ft
  • Peak Period 5s
  • Wind
    13mph, 18mph gusts
  • Sea Temp 46°f
  • 空気 Temp 38°f
  • Sea Pressure 1016.5mb
  • Buoy E01 - Central Maine Shelf
  • Buoy E01 - Central Maine Shelf

More Historic Weather Station data

Upgrade to MSW Pro to gain access to the past 30 days of data for over 8000 Wavebouys and Weather Stations around the globe.

Join Pro

Comparision Forecast

View Surf forecast
   
Mon 12/29 7:04am 1.3ft 5s 13 18 mph 1016.5mb 46f 38f
6:04am 2ft 3s 11 13 mph 1016mb 46f 38f
5:04am 2.5ft 4s 16 18 mph 1015.1mb 46f 37f
4:04am 3.5ft 4s 20 27 mph 1015.1mb 46f 38f
3:04am 2.5ft 4s 20 22 mph 1014.7mb 46f 38f
2:04am 2.5ft 3s 20 22 mph 1013.9mb 46f 40f
1:04am 2.5ft 5s 13 16 mph 1012.9mb 46f 40f
12:04am 2.5ft 5s 16 18 mph 1012.4mb 46f 41f
Sun 12/28 11:04pm 2.5ft 3s 16 20 mph 1011.9mb 46f 41f
10:04pm 3ft 5s 20 22 mph 1011.4mb 45f 41f
9:04pm 3ft 5s 16 18 mph 1010.5mb 45f 43f
8:04pm 3.5ft 6s 18 20 mph 1009.7mb 45f 44f
7:04pm 3.5ft 6s 20 27 mph 1009.2mb 45f 45f
6:04pm 3.5ft 5s 18 22 mph 1008.1mb 45f 46f
5:04pm 3.5ft 6s 13 16 mph 1007.2mb 45f 46f
4:04pm 4.5ft 6s 13 16 mph 1006.1mb 46f 47f
3:04pm 5ft 6s 16 20 mph 1006.1mb 46f 46f
2:04pm 6ft 6s 20 25 mph 1004.5mb 46f 46f
1:04pm 6.5ft 6s 22 27 mph 1003.2mb 46f 46f
12:04pm 6ft 6s 22 29 mph 1003.7mb 46f 46f
11:04am 6ft 6s 25 29 mph 1005mb 46f 45f
10:04am 6ft 6s 25 31 mph 1006.2mb 46f 46f
9:04am 5.5ft 5s 25 29 mph 1006.5mb 46f 46f
8:04am 5ft 6s 22 27 mph 1006.8mb 46f 46f
7:04am 6ft 5s 25 29 mph 1007.3mb 47f 46f
6:04am 5.5ft 5s 25 29 mph 1008.3mb 46f 46f
5:04am 5ft 5s 22 27 mph 1008.4mb 47f 47f
4:04am 4.5ft 5s 25 29 mph 1008.2mb 47f 48f
3:04am 3.5ft 5s 22 27 mph 1009.9mb 46f 48f
2:04am 2.5ft 4s 20 25 mph 1011.3mb 46f 48f
1:04am 2ft 3s 18 22 mph 1012.2mb 46f 47f
12:04am 1.6ft 4s 13 18 mph 1013.8mb 45f 46f
Sat 12/27 11:04pm 1.3ft 4s 11 13 mph 1015.4mb 45f 46f
10:04pm 1.3ft 4s 11
mph
1017.1mb 45f 45f
9:04pm 1.3ft 4s 9 11 mph 1018.1mb 45f 45f
8:04pm 1.3ft 4s 9 11 mph 1018.7mb 45f 45f
7:04pm 1.3ft 4s 7 9 mph 1018.2mb 45f 45f
6:04pm 1.3ft 4s 7 9 mph 1018mb 45f 45f
5:04pm 2ft 4s 9 11 mph 1018.4mb 45f 44f
4:04pm 2ft 5s 9
mph
1018.2mb 45f 44f
3:04pm 1.6ft 5s 9 11 mph 1018.1mb 46f 44f
2:04pm 1.6ft 5s 9 11 mph 1018.4mb 46f 44f
1:04pm 2ft 5s 4 7 mph 1018.5mb 46f 44f
12:04pm 2ft 5s 9 11 mph 1019mb 46f 44f
11:04am 3ft 5s 11
mph
1020mb 46f 44f
10:04am 2.5ft 5s 13 16 mph 1020.7mb 45f 43f
9:04am 2.5ft 5s 13 16 mph 1020.5mb 45f 43f
8:04am 2.5ft 5s 11 13 mph 1019.9mb 45f 43f
7:04am 2.5ft 5s 16 18 mph 1019.5mb 45f 43f
6:04am 2.5ft 5s 11 13 mph 1018.8mb 45f 43f
5:04am 2.5ft 5s 13 16 mph 1018.1mb 45f 42f
4:04am 2.5ft 5s 13
mph
1017.6mb 45f 43f
3:04am 2.5ft 5s 9 11 mph 1017.6mb 46f 42f
2:04am 2.5ft 5s 9 11 mph 1017.6mb 46f 42f
1:04am 3.5ft 5s 9 11 mph 1017.2mb 46f 42f
12:04am 3ft 5s 11 13 mph 1017.5mb 46f 42f
Fri 12/26 11:04pm 3.5ft 5s 16 18 mph 1017.9mb 46f 43f
10:04pm 3.5ft 5s 18 20 mph 1017.8mb 46f 44f
9:04pm 2.5ft 5s 18 20 mph 1017.9mb 46f 45f
8:04pm 3.5ft 6s 11 13 mph 1017.8mb 45f 45f
7:04pm 3ft 5s 4 7 mph 1017.8mb 44f 45f
6:04pm 2.5ft 5s 7
mph
1017.1mb 44f 45f
5:04pm 2.5ft 5s 7
mph
1016.9mb 45f 46f
4:04pm 3.5ft 11s 9 11 mph 1016.8mb 45f 46f
3:04pm  -   -  13 16 mph 1016.3mb 46f 46f
2:04pm 4.5ft 11s 16 18 mph 1015.7mb 46f 46f
1:04pm 3.5ft 5s 18 20 mph 1015.5mb 46f 46f
12:04pm 5ft 5s 18 20 mph 1015.7mb 46f 44f
11:04am 5ft 8s 18 22 mph 1016.5mb 46f 44f
10:04am 4ft 5s 20 22 mph 1016.7mb 46f 44f
9:04am 4.5ft 5s 20 25 mph 1016.5mb 46f 44f
8:04am 5ft 6s 20 25 mph 1015.5mb 46f 44f
7:04am 5ft 5s 20 25 mph 1014.8mb 46f 44f
6:04am 5.5ft 11s 22 25 mph 1014.1mb 46f 44f
5:04am 6ft 11s 22 27 mph 1013mb 45f 44f
4:04am 4.5ft 6s 18 25 mph 1012mb 48f 44f
3:04am 5ft 5s 18 20 mph 1012.2mb 48f 45f
2:04am 6.5ft 6s 20 22 mph 1011.7mb 48f 45f
1:04am 6.5ft 6s 22 29 mph 1010.3mb 47f 45f
12:04am 7ft 6s 22 29 mph 1009.2mb 48f 46f
Thu 12/25 11:04pm 7ft 6s 25 29 mph 1008.6mb 48f 46f
10:04pm 7ft 6s 25 29 mph 1008mb 48f 47f
9:04pm 7ft 6s 25 31 mph 1006.8mb 48f 47f
8:04pm 7ft 6s 25 31 mph 1005.8mb 48f 48f
7:04pm 7ft 6s 25 31 mph 1004.5mb 48f 48f
6:04pm 6ft 8s 27 34 mph 1002.9mb 48f 49f
5:04pm 5.5ft 8s 22 29 mph 1002.2mb 48f 49f
4:04pm 6ft 5s 25 29 mph 1000.6mb 48f 49f
3:04pm 6.5ft 8s 22 27 mph 998.9mb 48f 50f